• Join FlightAware (Why Join?)
  • Login
  • US Flag 
01:16AM EDT


 

Airport Tracker/Info


-or-


 

Live Flight TrackerFlight Track Log ✈ EJM123 ✈ 18-Apr-2013 ✈ KIAD - KSTP

Flight Track Log - Related Links

Times and Time Zones

All times are in EDT time to prevent confusion due to time zone crossing. See the EJM123 flight status page for this flight to view local times or setup timezone preferences in your user account.

Time Position Orientation Groundspeed Altitude Reporting Facility
EDT Latitude Longitude Course Direction KTS MPH feet Rate Location/Type
01:22PM 39.3497 -77.6850 352° North 476 548 14,800  Level Washington Center
01:23PM 39.4533 -77.7042 352° North 394 453 16,100 1,560 Climbing Washington Center
01:24PM 39.5228 -77.7975 314° West 319 367 18,000 2,520 Climbing Washington Center
01:25PM 39.5561 -77.9089 291° West 313 360 21,200 2,220 Climbing Washington Center
01:26PM 39.5911 -78.0258 291° West 323 372 22,500 1,380 Climbing Washington Center
01:28PM 39.6442 -78.2025 291° West 362 417 24,700 1,620 Climbing Cleveland Center
01:29PM 39.6844 -78.3386 318° Northwest 390 449 26,600 1,560 Climbing Cleveland Center
01:30PM 39.7369 -78.4719 297° West 404 465 27,900 1,260 Climbing Cleveland Center
01:31PM 39.7958 -78.6106 299° West 424 488 29,200 1,080 Climbing Cleveland Center
01:32PM 39.8606 -78.7494 301° West 440 506 30,100 1,140 Climbing Cleveland Center
01:33PM 39.9275 -78.8939 301° West 453 521 31,500 1,680 Climbing Cleveland Center
01:34PM 40.0069 -79.0544 303° West 472 543 33,500 1,740 Climbing Cleveland Center
01:35PM 40.0628 -79.1861 299° West 472 543 35,000 720 Climbing Cleveland Center
01:36PM 40.1419 -79.3556 301° West 483 556 35,000  Level Cleveland Center
01:37PM 40.2164 -79.5228 300° West 504 580 35,000  Level Cleveland Center
01:38PM 40.2908 -79.6850 301° West 515 593 35,100 420 Climbing Cleveland Center
01:39PM 40.3628 -79.8447 301° West 515 593 35,900 900 Climbing Cleveland Center
01:40PM 40.4325 -80.0075 299° West 510 587 36,900 900 Climbing Cleveland Center
01:41PM 40.4958 -80.1489 301° West 510 587 37,800 1,140 Climbing Cleveland Center
01:42PM 40.5631 -80.3017 300° West 500 575 39,200 1,500 Climbing Cleveland Center
01:43PM 40.6319 -80.4628 299° West 478 550 40,800 1,500 Climbing Cleveland Center
01:44PM 40.6925 -80.5994 300° West 454 522 42,200 1,080 Climbing Cleveland Center
01:45PM 40.7508 -80.7228 302° West 439 505 43,000 360 Climbing Cleveland Center
01:46PM 40.8111 -80.8631 300° West 439 505 43,000  Level Cleveland Center
01:47PM 40.8731 -81.0086 299° West 444 511 43,000  Level Cleveland Center
01:48PM 40.9331 -81.1547 299° West 444 511 43,000  Level Cleveland Center
01:49PM 40.9947 -81.3011 299° West 456 525 43,000  Level Cleveland Center
01:50PM 41.0561 -81.4478 299° West 456 525 43,000  Level Cleveland Center
01:51PM 41.1175 -81.5947 299° West 456 525 43,000 60 Level Cleveland Center
01:52PM 41.1850 -81.7392 302° West 456 525 43,200 300 Climbing Cleveland Center
01:53PM 41.2458 -81.8894 298° West 461 531 43,700 480 Climbing Cleveland Center
01:54PM 41.3067 -82.0344 299° West 461 531 44,200 540 Climbing Cleveland Center
01:55PM 41.3753 -82.1964 299° West 461 531 44,800 360 Climbing Cleveland Center
01:56PM 41.4506 -82.3339 306° West 461 531 45,000 60 Climbing Cleveland Center
01:57PM 41.5172 -82.4606 305° West 461 531 45,000  Level Cleveland Center
01:58PM 41.5942 -82.5989 307° West 472 543 45,000  Level Cleveland Center
01:59PM 41.6744 -82.7572 304° West 472 543 45,000  Level Cleveland Center
02:00PM 41.7531 -82.9017 306° West 472 543 45,000  Level Cleveland Center
02:01PM 41.8272 -83.0408 306° West 472 543 45,000  Level Cleveland Center
02:02PM 41.9033 -83.1889 305° West 472 543 45,000  Level Cleveland Center
02:03PM 41.9811 -83.3347 306° West 480 552 45,000  Level Cleveland Center
02:04PM 42.0547 -83.4833 304° West 480 552 45,000  Level Cleveland Center
02:05PM 42.1033 -83.6197 296° West 473 544 45,000  Level Cleveland Center
02:06PM 42.1636 -83.7769 297° West 467 537 45,000  Level Cleveland Center
02:07PM 42.2217 -83.9339 297° West 467 537 45,000  Level Cleveland Center
02:08PM 42.2797 -84.0858 297° West 461 531 45,000  Level Cleveland Center
02:09PM 42.3353 -84.2406 296° West 455 524 45,000  Level Cleveland Center
02:10PM 42.3908 -84.3900 297° West 455 524 45,000  Level Cleveland Center
02:11PM 42.4461 -84.5425 296° West 455 524 45,000  Level Cleveland Center
02:12PM 42.5053 -84.7042 296° West 447 514 45,000  Level Cleveland Center
02:13PM 42.5592 -84.8506 297° West 442 509 45,000  Level Chicago Center
02:14PM 42.6128 -85.0017 296° West 444 511 45,000  Level Chicago Center
02:15PM 42.6658 -85.1519 296° West 443 510 45,000  Level Chicago Center
02:16PM 42.7189 -85.3033 296° West 444 511 45,000  Level Chicago Center
02:17PM 42.7719 -85.4542 296° West 443 510 45,000  Level Chicago Center
02:18PM 42.8014 -85.6147 284° West 441 507 45,000  Level Chicago Center
02:19PM 42.8225 -85.7794 280° West 437 503 45,000  Level Chicago Center
02:20PM 42.8433 -85.9442 280° West 437 503 45,000  Level Chicago Center
02:21PM 42.8642 -86.1103 280° West 436 502 45,000  Level Chicago Center
02:22PM 42.8897 -86.3075 280° West 435 501 45,000  Level Chicago Center
02:23PM 42.9094 -86.4697 279° West 432 497 45,000  Level Chicago Center
02:24PM 42.9303 -86.6317 280° West 433 498 45,000  Level Chicago Center
02:25PM 42.9489 -86.7931 279° West 431 496 45,000  Level Chicago Center
02:26PM 42.9683 -86.9564 279° West 434 499 45,000  Level Chicago Center
02:27PM 42.9867 -87.1183 279° West 432 497 45,000  Level Chicago Center
02:28PM 43.0056 -87.2828 279° West 437 503 45,000  Level Chicago Center
02:29PM 43.0258 -87.4600 279° West 434 499 45,000  Level Chicago Center
02:30PM 43.0433 -87.6236 278° West 434 499 45,000  Level Chicago Center
02:31PM 43.0614 -87.7853 279° West 432 497 45,000  Level Chicago Center
02:32PM 43.0789 -87.9500 278° West 434 499 45,000  Level Chicago Center
02:33PM 43.1003 -88.1392 279° West 430 495 45,000  Level Chicago Center
02:35PM 43.1328 -88.2978 286° West 431 496 45,000  Level Chicago Center
02:36PM 43.2053 -88.4397 305° West 448 516 45,000  Level Chicago Center
02:37PM 43.2872 -88.5783 309° West 459 528 45,000  Level Chicago Center
02:38PM 43.3694 -88.7197 309° West 463 533 45,000  Level Chicago Center
02:39PM 43.4511 -88.8600 309° West 464 534 45,000 -120 Level Chicago Center
02:40PM 43.5325 -88.9983 309° West 461 531 44,800 -840 Descending Chicago Center
02:41PM 43.6136 -89.1417 308° West 470 541 43,300 -1,620 Descending Chicago Center
02:41PM 43.6683 -89.2381 308° West 475 547 42,300 -1,740 Descending Minneapolis Center
02:42PM 43.7489 -89.3814 308° West 474 545 40,600 -1,680 Descending Minneapolis Center
02:43PM 43.8336 -89.5292 309° West 487 560 38,900 -1,680 Descending Minneapolis Center
02:44PM 43.9206 -89.6850 308° West 506 582 37,200 -1,800 Descending Minneapolis Center
02:45PM 44.0092 -89.8428 308° West 516 594 35,300 -1,620 Descending Minneapolis Center
02:46PM 44.0992 -90.0025 308° West 521 600 34,000 -660 Descending Minneapolis Center
02:47PM 44.1811 -90.1658 305° West 517 595 34,000  Level Minneapolis Center
02:48PM 44.2461 -90.3669 294° West 490 564 34,000 -420 Level Minneapolis Center
02:49PM 44.3047 -90.5411 295° West 495 570 33,200 -1,620 Descending Minneapolis Center
02:50PM 44.3642 -90.7153 296° West 495 570 30,700 -2,700 Descending Minneapolis Center
02:52PM 44.4217 -90.8886 295° West 491 565 27,700 -2,760 Descending Minneapolis Center
02:53PM 44.4747 -91.0469 295° West 473 544 25,100 -1,860 Descending Minneapolis Center
02:54PM 44.5242 -91.2006 294° West 449 517 24,000 -540 Descending Minneapolis Center
02:55PM 44.5706 -91.3369 296° West 406 467 24,000 -780 Level Minneapolis Center
02:56PM 44.6222 -91.5028 294° West 390 449 22,500 -2,220 Descending Minneapolis Center
02:57PM 44.6692 -91.6467 295° West 399 459 19,500 -3,120 Descending Minneapolis Center
02:58PM 44.7169 -91.7933 295° West 411 473 16,100 -2,940 Descending Minneapolis Center
02:59PM 44.7628 -91.9122 299° West 367 422 13,800 -2,580 Descending FAA TRACON SMA TRACON (SMA)
02:59PM 44.7789 -91.9611 295° West 359 413 12,900 -2,400 Descending FAA TRACON SMA TRACON (SMA)
02:59PM 44.7917 -92.0000 295° West 354 407 12,200 -2,280 Descending FAA TRACON SMA TRACON (SMA)
03:00PM 44.8014 -92.0386 290° West 348 400 11,400 -2,700 Descending FAA TRACON SMA TRACON (SMA)
03:00PM 44.8164 -92.0864 294° West 346 398 10,400 -2,580 Descending FAA TRACON SMA TRACON (SMA)
03:00PM 44.8286 -92.1233 295° West 342 394 9,700 -2,280 Descending FAA TRACON SMA TRACON (SMA)
03:01PM 44.8400 -92.1589 294° West 329 379 8,900 -2,580 Descending FAA TRACON SMA TRACON (SMA)
03:01PM 44.8519 -92.2025 291° West 315 362 8,000 -2,400 Descending FAA TRACON SMA TRACON (SMA)
03:01PM 44.8633 -92.2367 295° West 312 359 7,300 -1,920 Descending FAA TRACON SMA TRACON (SMA)
03:02PM 44.8758 -92.2778 293° West 302 348 6,700 -1,620 Descending FAA TRACON SMA TRACON (SMA)
03:02PM 44.8853 -92.3094 293° West 293 337 6,200 -1,080 Descending FAA TRACON SMA TRACON (SMA)
03:02PM 44.8903 -92.3428 282° West 286 329 6,000 -360 Descending FAA TRACON SMA TRACON (SMA)
03:03PM 44.8892 -92.3756 267° West 278 320 6,000  Level FAA TRACON SMA TRACON (SMA)
03:03PM 44.8850 -92.4153 262° West 270 311 6,000  Level FAA TRACON SMA TRACON (SMA)
03:03PM 44.8825 -92.4472 264° West 265 305 6,000 -600 Level FAA TRACON SMA TRACON (SMA)
03:04PM 44.8781 -92.4794 259° West 269 310 5,600 -1,500 Descending FAA TRACON SMA TRACON (SMA)
03:04PM 44.8731 -92.5225 261° West 285 328 5,000 -1,500 Descending FAA TRACON SMA TRACON (SMA)
03:04PM 44.8683 -92.5569 259° West 292 336 4,600 -1,380 Descending FAA TRACON SMA TRACON (SMA)
03:05PM 44.8644 -92.5919 261° West 295 339 4,100 -1,500 Descending FAA TRACON SMA TRACON (SMA)
03:05PM 44.8564 -92.6342 255° West 292 336 3,600 -1,200 Descending FAA TRACON SMA TRACON (SMA)
03:05PM 44.8494 -92.6669 253° West 285 328 3,300 -900 Descending FAA TRACON SMA TRACON (SMA)
03:06PM 44.8453 -92.6978 259° West 271 312 3,000 -480 Descending FAA TRACON SMA TRACON (SMA)
03:06PM 44.8381 -92.7336 254° West 254 292 3,000  Level FAA TRACON SMA TRACON (SMA)
03:06PM 44.8336 -92.7614 257° West 242 278 3,000  Level FAA TRACON SMA TRACON (SMA)
03:07PM 44.8269 -92.7903 252° West 243 280 3,000 -300 Level FAA TRACON SMA TRACON (SMA)
03:07PM 44.8203 -92.8264 255° West 248 285 2,800 -600 Descending FAA TRACON SMA TRACON (SMA)
03:07PM 44.8164 -92.8553 259° West 249 287 2,600 -480 Descending FAA TRACON SMA TRACON (SMA)
03:08PM 44.8114 -92.8858 257° West 255 293 2,500 -180 Descending FAA TRACON SMA TRACON (SMA)
03:08PM 44.8092 -92.9236 265° West 262 302 2,500  Level FAA TRACON SMA TRACON (SMA)
03:08PM 44.8169 -92.9467 295° West 230 265 2,500  Level FAA TRACON SMA TRACON (SMA)
03:09PM 44.8283 -92.9614 317° Northwest 196 226 2,500  Level FAA TRACON SMA TRACON (SMA)
03:09PM 44.8425 -92.9744 327° Northwest 160 184 2,500  Level FAA TRACON SMA TRACON (SMA)
03:09PM 44.8517 -92.9828 327° Northwest 135 155 2,500 -180 Level FAA TRACON SMA TRACON (SMA)
03:10PM 44.8594 -92.9894 329° Northwest 114 131 2,400 -480 Descending FAA TRACON SMA TRACON (SMA)
03:10PM 44.8689 -92.9989 325° Northwest 109 125 2,200 -600 Descending FAA TRACON SMA TRACON (SMA)
03:10PM 44.8778 -93.0069 327° Northwest 120 138 2,000 -600 Descending FAA TRACON SMA TRACON (SMA)
03:11PM 44.8864 -93.0156 325° Northwest 124 143 1,800 -780 Descending FAA TRACON SMA TRACON (SMA)
03:11PM 44.8981 -93.0258 328° Northwest 127 146 1,500 -780 Descending FAA TRACON SMA TRACON (SMA)
03:11PM 44.9058 -93.0336 325° Northwest 116 133 1,300 -600 Descending FAA TRACON SMA TRACON (SMA)
03:12PM 44.9136 -93.0414 325° Northwest 112 129 1,100 -300 Descending FAA TRACON SMA TRACON (SMA)
03:12PM 44.9136 -93.0414 35° Northeast 112 129 1,100  Level FAA TRACON SMA TRACON (SMA)
03:14PM 44.9346 -93.0603 314° West  Level Estimated
03:21PM 44.9346 -93.0603 125° Southeast  Level Estimated